Time;durP1;ratioP1;P1;durP2;ratioP2;P2;SDS_P1;SDS_P2;PMS_P1;PMS_P2;Temp;Humidity;BMP_temperature;BMP_pressure;BME280_temperature;BME280_humidity;BME280_pressure;Samples;Min_cycle;Max_cycle;Signal;HPM_P1;HPM_P2
2023/09/07 00:01:12;;;;;;;10.18;9.27;;;;;;;;;;5013455;27;92936;-61
2023/09/07 00:03:40;;;;;;;13.77;6.47;;;;;;;;;;5014109;27;93379;-61
2023/09/07 00:06:08;;;;;;;9.27;8.20;;;;;;;;;;5019274;27;91824;-61
2023/09/07 00:08:34;;;;;;;9.13;8.32;;;;;;;;;;5013815;27;94465;-61
2023/09/07 00:11:04;;;;;;;8.05;7.22;;;;;;;;;;5016095;27;93388;-61
2023/09/07 00:13:31;;;;;;;11.13;8.00;;;;;;;;;;5012382;27;94799;-61
2023/09/07 00:15:59;;;;;;;11.32;7.68;;;;;;;;;;5012999;27;93474;-61
2023/09/07 00:18:26;;;;;;;12.40;9.80;;;;;;;;;;5013636;27;92523;-62
2023/09/07 00:20:52;;;;;;;9.60;8.73;;;;;;;;;;5013335;27;93121;-61
2023/09/07 00:23:19;;;;;;;10.70;9.73;;;;;;;;;;5014073;27;92522;-62
2023/09/07 00:25:46;;;;;;;9.63;8.75;;;;;;;;;;5017436;27;92309;-61
2023/09/07 00:28:13;;;;;;;12.55;9.70;;;;;;;;;;5013584;27;94245;-61
2023/09/07 00:30:40;;;;;;;11.23;9.63;;;;;;;;;;5013164;27;92679;-61
2023/09/07 00:33:07;;;;;;;10.68;9.15;;;;;;;;;;5019051;27;92974;-61
2023/09/07 00:35:34;;;;;;;9.68;8.85;;;;;;;;;;5016269;27;93269;-61
2023/09/07 00:38:00;;;;;;;10.90;7.93;;;;;;;;;;5015547;27;95115;-61
2023/09/07 00:40:27;;;;;;;8.18;7.22;;;;;;;;;;5015799;27;96047;-61
2023/09/07 00:42:53;;;;;;;7.10;5.78;;;;;;;;;;5012314;27;93442;-61
2023/09/07 00:45:20;;;;;;;11.10;10.10;;;;;;;;;;5012791;27;92462;-61
2023/09/07 00:47:46;;;;;;;13.45;12.25;;;;;;;;;;5016129;27;93122;-61
2023/09/07 00:50:13;;;;;;;11.70;10.18;;;;;;;;;;5012774;27;93597;-61
2023/09/07 00:52:41;;;;;;;12.88;11.65;;;;;;;;;;5018673;27;92472;-60
2023/09/07 00:55:08;;;;;;;13.35;12.07;;;;;;;;;;5016652;27;92718;-61
2023/09/07 00:57:35;;;;;;;10.75;9.80;;;;;;;;;;5011941;27;92525;-61
2023/09/07 01:00:03;;;;;;;12.77;11.50;;;;;;;;;;5013262;27;93236;-61
2023/09/07 01:02:31;;;;;;;11.52;10.68;;;;;;;;;;5010888;27;95774;-61
2023/09/07 01:04:57;;;;;;;11.73;10.60;;;;;;;;;;5013714;27;92544;-61
2023/09/07 01:07:25;;;;;;;16.08;14.77;;;;;;;;;;5024370;27;93187;-63
2023/09/07 01:09:55;;;;;;;17.73;16.33;;;;;;;;;;5012395;27;92318;-63
2023/09/07 01:12:22;;;;;;;16.90;14.98;;;;;;;;;;5012378;27;92868;-62
2023/09/07 01:14:48;;;;;;;12.32;11.38;;;;;;;;;;5014878;27;93168;-61
2023/09/07 01:17:15;;;;;;;13.90;12.85;;;;;;;;;;5019397;27;92896;-62
2023/09/07 01:19:42;;;;;;;14.32;13.02;;;;;;;;;;5012765;27;93208;-62
2023/09/07 01:22:09;;;;;;;12.18;10.82;;;;;;;;;;5012363;27;93358;-62
2023/09/07 01:24:37;;;;;;;12.82;11.88;;;;;;;;;;5012019;27;92655;-62
2023/09/07 01:27:04;;;;;;;14.00;10.23;;;;;;;;;;5014397;27;94885;-62
2023/09/07 01:29:30;;;;;;;11.15;10.23;;;;;;;;;;5011500;27;93456;-62
2023/09/07 01:31:57;;;;;;;14.30;13.02;;;;;;;;;;5024472;27;94030;-62
2023/09/07 01:34:24;;;;;;;12.23;11.25;;;;;;;;;;5011476;27;93160;-62
2023/09/07 01:36:50;;;;;;;11.73;10.90;;;;;;;;;;5018716;27;93430;-63
2023/09/07 01:39:17;;;;;;;12.23;10.93;;;;;;;;;;5028185;27;95091;-61
2023/09/07 01:41:43;;;;;;;16.48;10.73;;;;;;;;;;5011953;27;93390;-62
2023/09/07 01:44:10;;;;;;;12.75;11.55;;;;;;;;;;5011551;27;91763;-62
2023/09/07 01:46:36;;;;;;;9.77;8.98;;;;;;;;;;5016531;27;92675;-61
2023/09/07 01:49:03;;;;;;;13.65;11.98;;;;;;;;;;5015973;27;93213;-61
2023/09/07 01:51:29;;;;;;;13.73;12.55;;;;;;;;;;5010285;27;94929;-62
2023/09/07 01:53:56;;;;;;;15.05;13.23;;;;;;;;;;5011493;27;96702;-61
2023/09/07 01:56:22;;;;;;;11.95;11.10;;;;;;;;;;5011389;27;93392;-62
2023/09/07 01:58:48;;;;;;;14.00;13.02;;;;;;;;;;5014688;27;92528;-61
2023/09/07 02:01:21;;;;;;;17.77;16.13;;;;;;;;;;5011503;27;93449;-62
2023/09/07 02:03:48;;;;;;;10.32;9.57;;;;;;;;;;5015471;27;92614;-61
2023/09/07 02:06:15;;;;;;;11.75;10.73;;;;;;;;;;5016551;27;93147;-61
2023/09/07 02:08:41;;;;;;;15.88;14.65;;;;;;;;;;5011754;27;92748;-61
2023/09/07 02:11:08;;;;;;;15.13;13.98;;;;;;;;;;5011186;27;92413;-61
2023/09/07 02:13:34;;;;;;;15.23;14.05;;;;;;;;;;5011886;27;93029;-60
2023/09/07 02:16:05;;;;;;;12.02;11.15;;;;;;;;;;5012276;27;95879;-60
2023/09/07 02:18:31;;;;;;;;;;;;;;;;;;5021719;27;92545;-60
2023/09/07 02:21:02;;;;;;;32.00;29.75;;;;;;;;;;5019360;27;122598;-60
2023/09/07 02:23:29;;;;;;;23.33;21.65;;;;;;;;;;5014478;27;92737;-60
2023/09/07 02:25:55;;;;;;;14.52;13.52;;;;;;;;;;5014921;27;93775;-60
2023/09/07 02:28:21;;;;;;;23.00;16.48;;;;;;;;;;5014852;27;93550;-60
2023/09/07 02:30:48;;;;;;;15.65;14.50;;;;;;;;;;5018538;27;92537;-60
2023/09/07 02:33:14;;;;;;;19.75;18.35;;;;;;;;;;5017150;27;93132;-61
2023/09/07 02:35:41;;;;;;;16.38;15.07;;;;;;;;;;5016221;27;93691;-61
2023/09/07 02:38:07;;;;;;;16.35;14.80;;;;;;;;;;5014487;27;92619;-60
2023/09/07 02:40:39;;;;;;;15.25;13.77;;;;;;;;;;5012203;27;94882;-60
2023/09/07 02:43:05;;;;;;;15.07;13.82;;;;;;;;;;5021629;27;94659;-60
2023/09/07 02:45:32;;;;;;;18.50;16.98;;;;;;;;;;5018626;27;94278;-60
2023/09/07 02:47:58;;;;;;;21.60;19.95;;;;;;;;;;5018093;27;94470;-60
2023/09/07 02:50:25;;;;;;;22.75;20.98;;;;;;;;;;5015257;27;92508;-60
2023/09/07 02:52:51;;;;;;;19.27;17.90;;;;;;;;;;5017670;27;93203;-60
2023/09/07 02:55:17;;;;;;;19.98;18.50;;;;;;;;;;5014455;27;93512;-60
2023/09/07 02:57:44;;;;;;;26.33;24.17;;;;;;;;;;5014510;27;92037;-60
2023/09/07 03:00:11;;;;;;;28.30;26.02;;;;;;;;;;5013139;27;92503;-60
2023/09/07 03:02:38;;;;;;;22.38;20.70;;;;;;;;;;5017048;27;93395;-60
2023/09/07 03:05:04;;;;;;;22.45;20.92;;;;;;;;;;5011688;27;94893;-60
2023/09/07 03:07:32;;;;;;;15.98;13.82;;;;;;;;;;5013146;27;92625;-60
2023/09/07 03:09:59;;;;;;;18.92;17.63;;;;;;;;;;5014108;27;92665;-60
2023/09/07 03:12:25;;;;;;;19.92;13.93;;;;;;;;;;5013700;27;94231;-60
2023/09/07 03:14:52;;;;;;;18.80;17.38;;;;;;;;;;5014151;27;93563;-61
2023/09/07 03:17:20;;;;;;;18.85;17.50;;;;;;;;;;5022253;27;92606;-60
2023/09/07 03:19:47;;;;;;;21.73;20.05;;;;;;;;;;5014304;27;93527;-61
2023/09/07 03:22:13;;;;;;;23.05;21.30;;;;;;;;;;5014334;27;92611;-61
2023/09/07 03:24:40;;;;;;;21.35;19.42;;;;;;;;;;5016533;27;92450;-61
2023/09/07 03:27:06;;;;;;;21.52;20.05;;;;;;;;;;5012638;27;94558;-61
2023/09/07 03:29:35;;;;;;;26.10;24.05;;;;;;;;;;5012663;27;94956;-60
2023/09/07 03:32:02;;;;;;;33.75;30.95;;;;;;;;;;5013236;27;96782;-60
2023/09/07 03:34:28;;;;;;;23.73;21.67;;;;;;;;;;5013259;27;93557;-61
2023/09/07 03:36:55;;;;;;;28.08;26.13;;;;;;;;;;5017917;27;92399;-60
2023/09/07 03:39:22;;;;;;;31.75;29.10;;;;;;;;;;5012844;27;93213;-61
2023/09/07 03:41:49;;;;;;;21.40;19.75;;;;;;;;;;5013490;27;93385;-61
2023/09/07 03:44:16;;;;;;;30.15;27.80;;;;;;;;;;5012888;27;92455;-60
2023/09/07 03:46:42;;;;;;;27.13;24.88;;;;;;;;;;5024716;27;93148;-60
2023/09/07 03:49:08;;;;;;;31.83;29.38;;;;;;;;;;5012427;27;92599;-60
2023/09/07 03:51:35;;;;;;;32.88;30.05;;;;;;;;;;5013520;27;93956;-61
2023/09/07 03:54:01;;;;;;;29.17;26.50;;;;;;;;;;5010742;27;95746;-61
2023/09/07 03:56:28;;;;;;;33.22;30.80;;;;;;;;;;5013109;27;92620;-61
2023/09/07 03:58:54;;;;;;;34.33;31.98;;;;;;;;;;5018021;27;94220;-60
2023/09/07 04:01:20;;;;;;;32.55;30.20;;;;;;;;;;5013280;27;94638;-61
2023/09/07 04:03:47;;;;;;;34.50;31.77;;;;;;;;;;5012571;27;92494;-60
2023/09/07 04:06:13;;;;;;;33.78;30.77;;;;;;;;;;5012727;27;92692;-60
2023/09/07 04:08:40;;;;;;;25.35;23.33;;;;;;;;;;5016313;27;93468;-61
2023/09/07 04:11:06;;;;;;;22.73;21.02;;;;;;;;;;5017355;27;93101;-61
2023/09/07 04:13:33;;;;;;;31.33;28.92;;;;;;;;;;5012310;27;93372;-61
2023/09/07 04:15:59;;;;;;;26.80;24.73;;;;;;;;;;5013458;27;92475;-61
2023/09/07 04:18:25;;;;;;;19.88;17.95;;;;;;;;;;5011946;27;94864;-60
2023/09/07 04:20:52;;;;;;;24.90;22.90;;;;;;;;;;5012849;27;94468;-61
2023/09/07 04:23:18;;;;;;;21.45;19.67;;;;;;;;;;5012282;27;92473;-60
2023/09/07 04:25:45;;;;;;;28.13;25.75;;;;;;;;;;5012572;27;94959;-61
2023/09/07 04:28:11;;;;;;;21.45;19.77;;;;;;;;;;5012587;27;93433;-61
2023/09/07 04:30:38;;;;;;;26.52;24.55;;;;;;;;;;5016193;27;92562;-61
2023/09/07 04:33:05;;;;;;;24.85;23.10;;;;;;;;;;5011693;27;93399;-61
2023/09/07 04:35:32;;;;;;;19.20;17.83;;;;;;;;;;5013279;27;91652;-60
2023/09/07 04:37:59;;;;;;;27.92;25.88;;;;;;;;;;5012217;27;92535;-60
2023/09/07 04:40:25;;;;;;;27.88;25.83;;;;;;;;;;5013742;27;92664;-60
2023/09/07 04:42:51;;;;;;;22.58;20.98;;;;;;;;;;5010916;27;95014;-61
2023/09/07 04:45:18;;;;;;;22.50;20.90;;;;;;;;;;5012465;27;96576;-61
2023/09/07 04:47:44;;;;;;;29.10;26.50;;;;;;;;;;5011682;27;93307;-60
2023/09/07 04:50:11;;;;;;;22.73;20.92;;;;;;;;;;5022229;27;92810;-61
2023/09/07 04:52:37;;;;;;;23.30;21.42;;;;;;;;;;5015432;27;93147;-61
2023/09/07 04:55:04;;;;;;;22.65;20.70;;;;;;;;;;5012478;27;93016;-60
2023/09/07 04:57:30;;;;;;;20.13;18.52;;;;;;;;;;5011914;27;93010;-61
2023/09/07 04:59:56;;;;;;;24.27;21.85;;;;;;;;;;5017437;27;92836;-60
2023/09/07 05:02:23;;;;;;;25.48;23.33;;;;;;;;;;5012341;27;92578;-60
2023/09/07 05:04:50;;;;;;;27.77;25.73;;;;;;;;;;5011447;27;93476;-60
2023/09/07 05:07:16;;;;;;;31.38;29.23;;;;;;;;;;5010044;27;94958;-61
2023/09/07 05:09:42;;;;;;;24.95;23.15;;;;;;;;;;5016238;27;92509;-61
2023/09/07 05:12:09;;;;;;;24.83;22.83;;;;;;;;;;5015317;27;93091;-60
2023/09/07 05:14:35;;;;;;;20.10;18.65;;;;;;;;;;5011144;27;92484;-60
2023/09/07 05:17:02;;;;;;;23.98;22.20;;;;;;;;;;5012259;27;93151;-60
2023/09/07 05:19:28;;;;;;;22.25;20.65;;;;;;;;;;5011609;27;93393;-60
2023/09/07 05:21:54;;;;;;;19.98;18.38;;;;;;;;;;5012054;27;92554;-60
2023/09/07 05:24:21;;;;;;;28.25;26.27;;;;;;;;;;5011699;27;92860;-60
2023/09/07 05:26:47;;;;;;;26.65;24.50;;;;;;;;;;5011493;27;94454;-60
2023/09/07 05:29:13;;;;;;;27.27;25.02;;;;;;;;;;5012187;27;92379;-60
2023/09/07 05:31:40;;;;;;;27.50;25.25;;;;;;;;;;5014530;27;95366;-60
2023/09/07 05:34:06;;;;;;;21.75;20.00;;;;;;;;;;5014158;27;93510;-60
2023/09/07 05:36:32;;;;;;;35.00;32.45;;;;;;;;;;5011962;27;94255;-61
2023/09/07 05:39:01;;;;;;;31.38;29.02;;;;;;;;;;5011913;27;94467;-61
2023/09/07 05:41:27;;;;;;;24.02;21.92;;;;;;;;;;5011505;27;94493;-61
2023/09/07 05:43:54;;;;;;;27.33;25.02;;;;;;;;;;5015577;27;93198;-61
2023/09/07 05:46:20;;;;;;;26.13;23.67;;;;;;;;;;5012343;27;93346;-61
2023/09/07 05:48:47;;;;;;;19.98;18.20;;;;;;;;;;5012182;27;91681;-61
2023/09/07 05:51:13;;;;;;;28.05;25.55;;;;;;;;;;5015316;27;92715;-60
2023/09/07 05:53:40;;;;;;;32.83;30.55;;;;;;;;;;5014868;27;93457;-60
2023/09/07 05:56:06;;;;;;;27.73;25.67;;;;;;;;;;5016700;27;94907;-61
2023/09/07 05:58:33;;;;;;;22.05;20.55;;;;;;;;;;5014643;27;93441;-61
2023/09/07 06:01:00;;;;;;;29.33;26.52;;;;;;;;;;5014721;27;92579;-61
2023/09/07 06:03:26;;;;;;;23.17;21.27;;;;;;;;;;5015404;27;94150;-61
2023/09/07 06:05:53;;;;;;;29.02;26.70;;;;;;;;;;5017177;27;93421;-61
2023/09/07 06:08:19;;;;;;;25.85;23.60;;;;;;;;;;5015422;27;93287;-61
2023/09/07 06:10:46;;;;;;;24.50;21.90;;;;;;;;;;5014879;27;92460;-60
2023/09/07 06:13:12;;;;;;;20.75;19.05;;;;;;;;;;5019108;27;93056;-61
2023/09/07 06:15:38;;;;;;;23.27;21.40;;;;;;;;;;5013581;27;92471;-61
2023/09/07 06:18:05;;;;;;;16.92;15.32;;;;;;;;;;5023643;27;93096;-60
2023/09/07 06:20:31;;;;;;;20.30;18.67;;;;;;;;;;5013202;27;95071;-61
2023/09/07 06:22:58;;;;;;;25.73;23.33;;;;;;;;;;5014367;27;97120;-61
2023/09/07 06:25:24;;;;;;;33.28;30.55;;;;;;;;;;5017871;27;93429;-61
2023/09/07 06:27:53;;;;;;;30.90;28.20;;;;;;;;;;5014146;27;92516;-60
2023/09/07 06:30:19;;;;;;;28.42;25.98;;;;;;;;;;5013680;27;93221;-61
2023/09/07 06:32:47;;;;;;;36.75;33.25;;;;;;;;;;5020292;27;93707;-61
2023/09/07 06:35:13;;;;;;;44.17;40.55;;;;;;;;;;5016527;27;92561;-61
2023/09/07 06:37:42;;;;;;;32.03;28.98;;;;;;;;;;5014059;27;93223;-61
2023/09/07 06:40:09;;;;;;;29.95;27.45;;;;;;;;;;5017143;27;94440;-61
2023/09/07 06:42:36;;;;;;;28.75;26.40;;;;;;;;;;5017982;27;93170;-61
2023/09/07 06:45:03;;;;;;;24.55;22.20;;;;;;;;;;5012300;27;95460;-61
2023/09/07 06:47:29;;;;;;;32.45;29.70;;;;;;;;;;5015601;27;92585;-61
2023/09/07 06:49:57;;;;;;;36.13;31.83;;;;;;;;;;5017433;27;93313;-60
2023/09/07 06:52:23;;;;;;;26.35;24.00;;;;;;;;;;5014065;27;92375;-61
2023/09/07 06:54:53;;;;;;;26.45;24.13;;;;;;;;;;5015031;27;92483;-61
2023/09/07 06:57:20;;;;;;;21.97;19.50;;;;;;;;;;5019444;27;93362;-61
2023/09/07 06:59:47;;;;;;;29.67;26.52;;;;;;;;;;5018535;27;94861;-60
2023/09/07 07:02:13;;;;;;;35.08;21.08;;;;;;;;;;5016350;27;91976;-61
2023/09/07 07:04:40;;;;;;;27.85;25.25;;;;;;;;;;5013476;27;93701;-61
2023/09/07 07:07:06;;;;;;;22.42;20.33;;;;;;;;;;5013711;27;92454;-61
2023/09/07 07:09:33;;;;;;;26.98;24.70;;;;;;;;;;5012229;27;94818;-61
2023/09/07 07:12:02;;;;;;;18.48;16.70;;;;;;;;;;5013755;27;93401;-61
2023/09/07 07:14:29;;;;;;;25.80;16.95;;;;;;;;;;5013488;27;92641;-61
2023/09/07 07:16:55;;;;;;;18.90;16.92;;;;;;;;;;5015082;27;93217;-61
2023/09/07 07:19:22;;;;;;;18.52;15.82;;;;;;;;;;5012964;27;92620;-62
2023/09/07 07:21:49;;;;;;;15.52;14.07;;;;;;;;;;5015260;27;92535;-61
2023/09/07 07:24:15;;;;;;;14.82;13.05;;;;;;;;;;5013646;27;94438;-61
2023/09/07 07:26:42;;;;;;;28.08;13.25;;;;;;;;;;5013548;27;92150;-61
2023/09/07 07:29:09;;;;;;;15.40;13.32;;;;;;;;;;5014182;27;93607;-62
2023/09/07 07:31:36;;;;;;;14.18;8.55;;;;;;;;;;5013274;27;92630;-61
2023/09/07 07:34:02;;;;;;;19.10;8.80;;;;;;;;;;5021216;27;95007;-61
2023/09/07 07:36:29;;;;;;;15.07;11.55;;;;;;;;;;5014368;27;95512;-61
2023/09/07 07:38:58;;;;;;;21.90;9.82;;;;;;;;;;5012774;27;93682;-61
2023/09/07 07:41:25;;;;;;;12.38;8.48;;;;;;;;;;5013986;27;92468;-61
2023/09/07 07:43:51;;;;;;;15.43;8.73;;;;;;;;;;5016193;27;93199;-61
2023/09/07 07:46:19;;;;;;;14.13;8.50;;;;;;;;;;5015619;27;92570;-61
2023/09/07 07:48:46;;;;;;;18.67;8.63;;;;;;;;;;5014022;27;93218;-62
2023/09/07 07:51:12;;;;;;;11.32;8.73;;;;;;;;;;5016937;27;92693;-61
2023/09/07 07:53:38;;;;;;;18.83;7.90;;;;;;;;;;5012996;27;92654;-61
2023/09/07 07:56:05;;;;;;;12.75;8.43;;;;;;;;;;5014459;27;94277;-61
2023/09/07 07:58:31;;;;;;;16.38;8.38;;;;;;;;;;5020487;27;95790;-61
2023/09/07 08:00:58;;;;;;;15.35;8.63;;;;;;;;;;5013477;27;92522;-60
2023/09/07 08:03:25;;;;;;;8.32;7.18;;;;;;;;;;5018281;27;94136;-61
2023/09/07 08:05:51;;;;;;;18.92;7.72;;;;;;;;;;5016530;27;93056;-61
2023/09/07 08:08:18;;;;;;;23.77;7.90;;;;;;;;;;5013799;27;94144;-61
2023/09/07 08:10:45;;;;;;;20.38;7.55;;;;;;;;;;5012970;27;94468;-60
2023/09/07 08:13:12;;;;;;;16.42;7.30;;;;;;;;;;5013323;27;92524;-61
2023/09/07 08:15:39;;;;;;;9.20;6.93;;;;;;;;;;5013840;27;93179;-61
2023/09/07 08:18:05;;;;;;;11.75;7.57;;;;;;;;;;5032123;27;94418;-60
2023/09/07 08:20:32;;;;;;;14.80;6.53;;;;;;;;;;5014012;27;92741;-61
2023/09/07 08:22:59;;;;;;;16.85;7.25;;;;;;;;;;5011912;27;95642;-61
2023/09/07 08:25:26;;;;;;;12.88;6.93;;;;;;;;;;5012898;27;94394;-61
2023/09/07 08:27:55;;;;;;;19.83;7.25;;;;;;;;;;5016823;27;92446;-61
2023/09/07 08:30:24;;;;;;;11.73;7.03;;;;;;;;;;5013515;27;93307;-61
2023/09/07 08:32:51;;;;;;;10.60;6.27;;;;;;;;;;5013852;27;92426;-61
2023/09/07 08:35:18;;;;;;;7.18;5.55;;;;;;;;;;5013057;27;94120;-61
2023/09/07 08:37:44;;;;;;;16.75;6.07;;;;;;;;;;5013309;27;93329;-61
2023/09/07 08:40:11;;;;;;;8.30;5.70;;;;;;;;;;5012482;27;91671;-61
2023/09/07 08:42:40;;;;;;;16.00;5.13;;;;;;;;;;5013647;27;93761;-61
2023/09/07 08:45:08;;;;;;;10.23;4.65;;;;;;;;;;5012910;27;94346;-60
2023/09/07 08:47:36;;;;;;;7.72;5.15;;;;;;;;;;5017482;27;95356;-61
2023/09/07 08:50:04;;;;;;;17.17;4.65;;;;;;;;;;5020053;27;95477;-61
2023/09/07 08:52:30;;;;;;;13.60;4.15;;;;;;;;;;5012799;27;92723;-61
2023/09/07 08:55:00;;;;;;;8.73;3.97;;;;;;;;;;5012111;27;92948;-61
2023/09/07 08:57:29;;;;;;;7.40;3.97;;;;;;;;;;5012136;27;93599;-61
2023/09/07 08:59:55;;;;;;;16.10;4.93;;;;;;;;;;5013227;27;92363;-61
2023/09/07 09:02:22;;;;;;;8.48;3.90;;;;;;;;;;5012186;27;92977;-61
2023/09/07 09:04:49;;;;;;;8.18;3.80;;;;;;;;;;5013433;27;92870;-61
2023/09/07 09:07:15;;;;;;;5.60;3.60;;;;;;;;;;5012607;27;92521;-61
2023/09/07 09:09:41;;;;;;;3.90;3.17;;;;;;;;;;5015411;27;93134;-61
2023/09/07 09:12:09;;;;;;;8.45;3.85;;;;;;;;;;5015560;27;94939;-61
2023/09/07 09:14:35;;;;;;;4.63;3.20;;;;;;;;;;5016897;27;95536;-61
2023/09/07 09:17:02;;;;;;;3.85;2.95;;;;;;;;;;5014746;27;93454;-61
2023/09/07 09:19:32;;;;;;;5.50;3.17;;;;;;;;;;5017446;27;92414;-61
2023/09/07 09:22:00;;;;;;;7.47;3.00;;;;;;;;;;5021114;27;92962;-62
2023/09/07 09:24:26;;;;;;;5.85;3.38;;;;;;;;;;5011999;27;93460;-61
2023/09/07 09:26:53;;;;;;;8.80;3.08;;;;;;;;;;5018630;27;92690;-61
2023/09/07 09:29:21;;;;;;;8.00;3.28;;;;;;;;;;5016688;27;92992;-60
2023/09/07 09:31:49;;;;;;;6.40;3.13;;;;;;;;;;5023876;27;93350;-62
2023/09/07 09:34:15;;;;;;;11.82;2.50;;;;;;;;;;5018931;27;93152;-61
2023/09/07 09:36:42;;;;;;;8.27;3.22;;;;;;;;;;5014105;27;95709;-61
2023/09/07 09:39:09;;;;;;;6.25;2.85;;;;;;;;;;5019820;27;92550;-62
2023/09/07 09:41:36;;;;;;;8.13;3.15;;;;;;;;;;5015932;27;94326;-61
2023/09/07 09:44:03;;;;;;;10.23;3.00;;;;;;;;;;5014682;27;93394;-61
2023/09/07 09:46:31;;;;;;;5.78;2.95;;;;;;;;;;5018680;27;92695;-61
2023/09/07 09:48:58;;;;;;;7.53;2.90;;;;;;;;;;5015864;27;94332;-62
2023/09/07 09:51:25;;;;;;;10.57;3.30;;;;;;;;;;5015837;27;93501;-61
2023/09/07 09:53:53;;;;;;;7.90;2.97;;;;;;;;;;5019185;27;91836;-62
2023/09/07 09:56:20;;;;;;;8.68;2.60;;;;;;;;;;5014885;27;93508;-61
2023/09/07 09:58:47;;;;;;;10.80;2.92;;;;;;;;;;5016113;27;92450;-61
2023/09/07 10:01:14;;;;;;;13.50;3.10;;;;;;;;;;5014532;27;94857;-61
2023/09/07 10:03:45;;;;;;;6.57;3.38;;;;;;;;;;5016093;27;94422;-61
2023/09/07 10:06:22;;;;;;;7.25;3.03;;;;;;;;;;5016038;27;92462;-61
2023/09/07 10:08:57;;;;;;;6.63;2.70;;;;;;;;;;5015548;27;94108;-61
2023/09/07 10:11:29;;;;;;;14.15;2.63;;;;;;;;;;5014957;27;93481;-61
2023/09/07 10:14:05;;;;;;;6.22;2.75;;;;;;;;;;5015889;27;92446;-61
2023/09/07 10:16:43;;;;;;;5.75;3.13;;;;;;;;;;5021570;27;94419;-61
2023/09/07 10:19:17;;;;;;;12.60;3.08;;;;;;;;;;5016071;27;91799;-61
2023/09/07 10:21:43;;;;;;;13.90;3.10;;;;;;;;;;5015442;27;93801;-60
2023/09/07 10:24:10;;;;;;;6.75;3.45;;;;;;;;;;5019269;27;94601;-61
2023/09/07 10:26:36;;;;;;;22.38;3.63;;;;;;;;;;5014086;27;94912;-61
2023/09/07 10:29:05;;;;;;;23.10;4.00;;;;;;;;;;5015255;27;96731;-61
2023/09/07 10:31:31;;;;;;;12.25;3.00;;;;;;;;;;5015558;27;93465;-61
2023/09/07 10:34:18;;;;;;;10.32;3.35;;;;;;;;;;5015432;27;92437;-60
2023/09/07 10:36:45;;;;;;;8.95;2.95;;;;;;;;;;5015105;27;94149;-61
2023/09/07 10:39:12;;;;;;;5.07;3.10;;;;;;;;;;5017601;27;92561;-62
2023/09/07 10:41:43;;;;;;;5.07;2.72;;;;;;;;;;5015820;27;94198;-61
2023/09/07 10:44:13;;;;;;;4.53;2.90;;;;;;;;;;5014854;27;92774;-60
2023/09/07 10:46:40;;;;;;;11.98;2.88;;;;;;;;;;5020401;27;92572;-61
2023/09/07 10:49:11;;;;;;;16.08;2.78;;;;;;;;;;5016344;27;92524;-61
2023/09/07 10:51:45;;;;;;;5.03;2.53;;;;;;;;;;5013512;27;95797;-61
2023/09/07 10:54:15;;;;;;;11.45;2.90;;;;;;;;;;5014546;27;92618;-61
2023/09/07 10:56:43;;;;;;;4.78;2.50;;;;;;;;;;5014791;27;94139;-61
2023/09/07 10:59:09;;;;;;;5.50;3.00;;;;;;;;;;5014615;27;93421;-61
2023/09/07 11:01:36;;;;;;;11.50;3.03;;;;;;;;;;5017425;27;92727;-61
2023/09/07 11:04:03;;;;;;;10.38;3.00;;;;;;;;;;5021941;27;93473;-60
2023/09/07 11:06:30;;;;;;;5.72;2.85;;;;;;;;;;5018709;27;92409;-60
2023/09/07 11:09:00;;;;;;;10.88;2.90;;;;;;;;;;5014696;27;94164;-61
2023/09/07 11:11:26;;;;;;;;;;;;;;;;;;5014469;27;94561;-59
2023/09/07 11:13:53;;;;;;;5.05;2.47;;;;;;;;;;5014294;27;118592;-61
2023/09/07 11:16:19;;;;;;;2.90;2.25;;;;;;;;;;5020438;27;94961;-61
2023/09/07 11:18:46;;;;;;;3.53;2.58;;;;;;;;;;5026537;27;93481;-61
2023/09/07 11:21:12;;;;;;;4.15;2.78;;;;;;;;;;5025515;27;92574;-60
2023/09/07 11:23:39;;;;;;;3.35;2.40;;;;;;;;;;5020492;27;95461;-60
2023/09/07 11:26:05;;;;;;;10.55;2.58;;;;;;;;;;5014242;27;92426;-60
2023/09/07 11:28:32;;;;;;;7.68;2.53;;;;;;;;;;5020629;27;94402;-60
2023/09/07 11:30:58;;;;;;;6.57;2.70;;;;;;;;;;5017681;27;94176;-60
2023/09/07 11:33:25;;;;;;;6.97;2.88;;;;;;;;;;5014914;27;92113;-61
2023/09/07 11:35:54;;;;;;;4.38;2.78;;;;;;;;;;5014509;27;92512;-61
2023/09/07 11:38:21;;;;;;;6.00;2.93;;;;;;;;;;5014031;27;93612;-60
2023/09/07 11:40:47;;;;;;;41.67;6.10;;;;;;;;;;5012392;27;94812;-60
2023/09/07 11:43:18;;;;;;;7.78;2.65;;;;;;;;;;5020790;27;95525;-61
2023/09/07 11:45:45;;;;;;;4.22;2.60;;;;;;;;;;5014658;27;92484;-61
2023/09/07 11:48:12;;;;;;;6.18;2.50;;;;;;;;;;5018670;27;94343;-60
2023/09/07 11:50:39;;;;;;;4.18;2.80;;;;;;;;;;5013590;27;93556;-61
2023/09/07 11:53:06;;;;;;;7.75;3.85;;;;;;;;;;5018171;27;92411;-61
2023/09/07 11:55:33;;;;;;;7.90;2.90;;;;;;;;;;5013604;27;93096;-61
2023/09/07 11:58:00;;;;;;;6.07;2.33;;;;;;;;;;5013954;27;93740;-61
2023/09/07 12:00:26;;;;;;;7.03;2.65;;;;;;;;;;5013968;27;92546;-60
2023/09/07 12:02:53;;;;;;;13.10;2.97;;;;;;;;;;5013513;27;93526;-60
2023/09/07 12:05:19;;;;;;;5.55;2.20;;;;;;;;;;5013945;27;96811;-59
2023/09/07 12:07:46;;;;;;;4.95;3.08;;;;;;;;;;5014253;27;96919;-60
2023/09/07 12:10:13;;;;;;;5.95;2.70;;;;;;;;;;5013272;27;93348;-60
2023/09/07 12:12:40;;;;;;;15.10;3.20;;;;;;;;;;5013331;27;92425;-60
2023/09/07 12:15:07;;;;;;;7.15;2.45;;;;;;;;;;5013892;27;93208;-58
2023/09/07 12:17:33;;;;;;;20.58;16.42;;;;;;;;;;5016668;27;93399;-58
2023/09/07 12:20:00;;;;;;;47.55;43.72;;;;;;;;;;5012279;27;92609;-59
2023/09/07 12:22:27;;;;;;;58.97;53.85;;;;;;;;;;5013717;27;93404;-59
2023/09/07 12:24:53;;;;;;;91.22;83.90;;;;;;;;;;5012419;27;94465;-59
2023/09/07 12:27:38;;;;;;;58.38;53.65;;;;;;;;;;5015512;27;92648;-60
2023/09/07 12:30:20;;;;;;;83.93;76.85;;;;;;;;;;5010778;27;96006;-59
2023/09/07 12:32:47;;;;;;;111.82;103.13;;;;;;;;;;5013070;27;92723;-59
2023/09/07 12:35:14;;;;;;;80.65;74.00;;;;;;;;;;5011601;27;93406;-60
2023/09/07 12:37:42;;;;;;;88.83;81.43;;;;;;;;;;5015637;27;92754;-60
2023/09/07 12:40:12;;;;;;;116.40;107.22;;;;;;;;;;5012168;27;92889;-60
2023/09/07 12:42:40;;;;;;;165.02;150.88;;;;;;;;;;5011414;27;93823;-60
2023/09/07 12:45:08;;;;;;;158.25;144.23;;;;;;;;;;5013917;27;95429;-60
2023/09/07 12:47:34;;;;;;;127.07;116.55;;;;;;;;;;5014728;27;95262;-60
2023/09/07 12:50:01;;;;;;;164.77;149.85;;;;;;;;;;5012740;27;95641;-60
2023/09/07 12:52:28;;;;;;;162.75;148.70;;;;;;;;;;5008753;27;94644;-60
2023/09/07 12:54:54;;;;;;;208.38;189.18;;;;;;;;;;5007855;27;97411;-60
2023/09/07 12:57:20;;;;;;;159.02;145.95;;;;;;;;;;5009191;27;95796;-60
2023/09/07 12:59:47;;;;;;;213.63;194.23;;;;;;;;;;5007544;27;95622;-61
2023/09/07 13:02:13;;;;;;;232.90;212.38;;;;;;;;;;5013477;27;95694;-61
2023/09/07 13:04:40;;;;;;;240.45;219.05;;;;;;;;;;5010941;27;95845;-60
2023/09/07 13:07:06;;;;;;;153.55;140.45;;;;;;;;;;5009951;27;95234;-61
2023/09/07 13:09:32;;;;;;;242.18;221.10;;;;;;;;;;5007983;27;94924;-61
2023/09/07 13:11:59;;;;;;;253.40;232.00;;;;;;;;;;5021818;27;95824;-61
2023/09/07 13:14:25;;;;;;;298.77;272.88;;;;;;;;;;5011675;27;95056;-61
2023/09/07 13:16:59;;;;;;;314.42;286.55;;;;;;;;;;5013174;27;95791;-61
2023/09/07 13:19:26;;;;;;;244.97;226.27;;;;;;;;;;5011469;27;97303;-61
2023/09/07 13:21:52;;;;;;;244.70;223.67;;;;;;;;;;5008514;27;98103;-60
2023/09/07 13:24:18;;;;;;;348.80;317.97;;;;;;;;;;5012456;27;95854;-58
2023/09/07 13:26:47;;;;;;;331.13;302.77;;;;;;;;;;5008844;27;95427;-59
2023/09/07 13:29:14;;;;;;;275.15;251.57;;;;;;;;;;5007644;27;95716;-58
2023/09/07 13:31:40;;;;;;;274.30;250.00;;;;;;;;;;5012252;27;96846;-58
2023/09/07 13:34:07;;;;;;;330.83;301.55;;;;;;;;;;5008082;27;95545;-59
2023/09/07 13:36:33;;;;;;;305.42;278.35;;;;;;;;;;5008575;27;96478;-59
2023/09/07 13:38:59;;;;;;;320.90;293.30;;;;;;;;;;5011752;27;94931;-58
2023/09/07 13:41:26;;;;;;;318.38;290.60;;;;;;;;;;5012186;27;95649;-59
2023/09/07 13:43:53;;;;;;;338.52;309.40;;;;;;;;;;5006836;27;99285;-58
2023/09/07 13:46:20;;;;;;;337.50;307.33;;;;;;;;;;5011039;27;95025;-59
2023/09/07 13:48:46;;;;;;;367.90;335.65;;;;;;;;;;5009254;27;95672;-59
2023/09/07 13:51:12;;;;;;;344.17;314.25;;;;;;;;;;5007768;27;95862;-58
2023/09/07 13:53:39;;;;;;;338.45;309.48;;;;;;;;;;5010828;27;94941;-58
2023/09/07 13:56:05;;;;;;;341.77;312.10;;;;;;;;;;5011762;27;96873;-59
2023/09/07 13:58:31;;;;;;;354.15;322.95;;;;;;;;;;5008373;27;95717;-58
2023/09/07 14:00:58;;;;;;;354.67;324.30;;;;;;;;;;5008146;27;95798;-59
2023/09/07 14:03:24;;;;;;;376.98;344.05;;;;;;;;;;5007957;27;95895;-59
2023/09/07 14:05:51;;;;;;;366.20;333.67;;;;;;;;;;5007104;27;96046;-59
2023/09/07 14:08:23;;;;;;;;;;;;;;;;;;5007392;27;97286;-58
2023/09/07 14:10:49;;;;;;;372.02;337.80;;;;;;;;;;5010354;27;126447;-59
2023/09/07 14:13:17;;;;;;;412.33;374.55;;;;;;;;;;5010982;27;95020;-58
2023/09/07 14:15:44;;;;;;;372.23;337.52;;;;;;;;;;5014368;27;95843;-59
2023/09/07 14:18:11;;;;;;;372.05;339.50;;;;;;;;;;5017864;27;95012;-58
2023/09/07 14:20:38;;;;;;;355.58;324.38;;;;;;;;;;5011446;27;95736;-58
2023/09/07 14:23:04;;;;;;;389.55;355.23;;;;;;;;;;5017404;27;95843;-58